sensor_id;sensor_type;location;lat;lon;timestamp;P1;durP1;ratioP1;P2;durP2;ratioP2
12151;SDS011;6139;51.274;7.128;2023-09-12T00:00:48;7.45;;;6.47;;
12151;SDS011;6139;51.274;7.128;2023-09-12T00:01:49;6.55;;;5.95;;
12151;SDS011;6139;51.274;7.128;2023-09-12T00:02:51;7.82;;;6.20;;
12151;SDS011;6139;51.274;7.128;2023-09-12T00:03:52;9.55;;;5.80;;
12151;SDS011;6139;51.274;7.128;2023-09-12T00:04:54;7.18;;;6.38;;
12151;SDS011;6139;51.274;7.128;2023-09-12T00:05:56;8.18;;;6.03;;
12151;SDS011;6139;51.274;7.128;2023-09-12T00:06:59;6.50;;;5.90;;
12151;SDS011;6139;51.274;7.128;2023-09-12T00:08:00;5.80;;;5.30;;
12151;SDS011;6139;51.274;7.128;2023-09-12T00:09:03;6.95;;;6.22;;
12151;SDS011;6139;51.274;7.128;2023-09-12T00:10:06;6.75;;;5.63;;
12151;SDS011;6139;51.274;7.128;2023-09-12T00:11:08;6.75;;;6.15;;
12151;SDS011;6139;51.274;7.128;2023-09-12T00:12:13;6.10;;;5.50;;
12151;SDS011;6139;51.274;7.128;2023-09-12T00:13:17;6.45;;;5.85;;
12151;SDS011;6139;51.274;7.128;2023-09-12T00:14:18;7.57;;;6.88;;
12151;SDS011;6139;51.274;7.128;2023-09-12T00:15:20;7.03;;;6.32;;
12151;SDS011;6139;51.274;7.128;2023-09-12T00:16:21;6.65;;;6.05;;
12151;SDS011;6139;51.274;7.128;2023-09-12T00:17:23;6.75;;;5.93;;
12151;SDS011;6139;51.274;7.128;2023-09-12T00:18:27;6.30;;;5.70;;
12151;SDS011;6139;51.274;7.128;2023-09-12T00:19:28;6.65;;;5.95;;
12151;SDS011;6139;51.274;7.128;2023-09-12T00:20:30;5.85;;;5.35;;
12151;SDS011;6139;51.274;7.128;2023-09-12T00:21:31;7.05;;;5.32;;
12151;SDS011;6139;51.274;7.128;2023-09-12T00:22:33;6.03;;;5.50;;
12151;SDS011;6139;51.274;7.128;2023-09-12T00:23:34;6.72;;;5.82;;
12151;SDS011;6139;51.274;7.128;2023-09-12T00:24:35;6.72;;;5.68;;
12151;SDS011;6139;51.274;7.128;2023-09-12T00:25:38;6.00;;;5.22;;
12151;SDS011;6139;51.274;7.128;2023-09-12T00:26:40;7.25;;;5.20;;
12151;SDS011;6139;51.274;7.128;2023-09-12T00:27:41;5.28;;;4.78;;
12151;SDS011;6139;51.274;7.128;2023-09-12T00:28:44;5.18;;;4.65;;
12151;SDS011;6139;51.274;7.128;2023-09-12T00:29:45;5.22;;;4.75;;
12151;SDS011;6139;51.274;7.128;2023-09-12T00:30:47;5.50;;;5.03;;
12151;SDS011;6139;51.274;7.128;2023-09-12T00:31:48;7.22;;;4.88;;
12151;SDS011;6139;51.274;7.128;2023-09-12T00:32:50;6.57;;;5.00;;
12151;SDS011;6139;51.274;7.128;2023-09-12T00:33:51;6.30;;;4.82;;
12151;SDS011;6139;51.274;7.128;2023-09-12T00:34:53;7.45;;;4.78;;
12151;SDS011;6139;51.274;7.128;2023-09-12T00:35:54;5.30;;;4.68;;
12151;SDS011;6139;51.274;7.128;2023-09-12T00:36:56;6.22;;;4.78;;
12151;SDS011;6139;51.274;7.128;2023-09-12T00:37:57;5.00;;;4.50;;
12151;SDS011;6139;51.274;7.128;2023-09-12T00:38:59;4.85;;;4.43;;
12151;SDS011;6139;51.274;7.128;2023-09-12T00:40:00;5.07;;;4.57;;
12151;SDS011;6139;51.274;7.128;2023-09-12T00:41:03;5.18;;;4.25;;
12151;SDS011;6139;51.274;7.128;2023-09-12T00:42:04;4.97;;;4.57;;
12151;SDS011;6139;51.274;7.128;2023-09-12T00:43:07;4.90;;;4.40;;
12151;SDS011;6139;51.274;7.128;2023-09-12T00:44:11;7.43;;;4.80;;
12151;SDS011;6139;51.274;7.128;2023-09-12T00:45:12;4.72;;;4.32;;
12151;SDS011;6139;51.274;7.128;2023-09-12T00:46:14;6.82;;;4.95;;
12151;SDS011;6139;51.274;7.128;2023-09-12T00:47:20;5.28;;;4.75;;
12151;SDS011;6139;51.274;7.128;2023-09-12T00:48:23;5.85;;;5.22;;
12151;SDS011;6139;51.274;7.128;2023-09-12T00:49:25;5.22;;;4.82;;
12151;SDS011;6139;51.274;7.128;2023-09-12T00:50:28;5.70;;;5.10;;
12151;SDS011;6139;51.274;7.128;2023-09-12T00:51:32;4.68;;;4.28;;
12151;SDS011;6139;51.274;7.128;2023-09-12T00:52:34;6.55;;;5.38;;
12151;SDS011;6139;51.274;7.128;2023-09-12T00:53:36;5.32;;;4.82;;
12151;SDS011;6139;51.274;7.128;2023-09-12T00:54:38;6.32;;;5.22;;
12151;SDS011;6139;51.274;7.128;2023-09-12T00:55:42;6.78;;;5.10;;
12151;SDS011;6139;51.274;7.128;2023-09-12T00:56:49;5.72;;;5.15;;
12151;SDS011;6139;51.274;7.128;2023-09-12T00:57:50;5.90;;;5.30;;
12151;SDS011;6139;51.274;7.128;2023-09-12T00:58:53;6.10;;;5.55;;
12151;SDS011;6139;51.274;7.128;2023-09-12T00:59:57;8.20;;;5.15;;
12151;SDS011;6139;51.274;7.128;2023-09-12T01:00:58;7.72;;;5.85;;
12151;SDS011;6139;51.274;7.128;2023-09-12T01:02:00;5.72;;;5.20;;
12151;SDS011;6139;51.274;7.128;2023-09-12T01:03:03;6.10;;;5.60;;
12151;SDS011;6139;51.274;7.128;2023-09-12T01:04:05;5.45;;;4.97;;
12151;SDS011;6139;51.274;7.128;2023-09-12T01:05:07;5.72;;;5.22;;
12151;SDS011;6139;51.274;7.128;2023-09-12T01:06:10;7.00;;;5.72;;
12151;SDS011;6139;51.274;7.128;2023-09-12T01:07:13;5.78;;;5.18;;
12151;SDS011;6139;51.274;7.128;2023-09-12T01:08:15;5.15;;;4.75;;
12151;SDS011;6139;51.274;7.128;2023-09-12T01:09:17;5.03;;;4.57;;
12151;SDS011;6139;51.274;7.128;2023-09-12T01:10:18;5.60;;;5.10;;
12151;SDS011;6139;51.274;7.128;2023-09-12T01:11:20;5.32;;;4.82;;
12151;SDS011;6139;51.274;7.128;2023-09-12T01:12:21;5.32;;;4.82;;
12151;SDS011;6139;51.274;7.128;2023-09-12T01:13:25;6.45;;;5.10;;
12151;SDS011;6139;51.274;7.128;2023-09-12T01:14:26;5.80;;;4.60;;
12151;SDS011;6139;51.274;7.128;2023-09-12T01:15:28;5.05;;;4.55;;
12151;SDS011;6139;51.274;7.128;2023-09-12T01:16:30;4.93;;;4.43;;
12151;SDS011;6139;51.274;7.128;2023-09-12T01:17:31;5.40;;;3.72;;
12151;SDS011;6139;51.274;7.128;2023-09-12T01:18:33;4.53;;;4.13;;
12151;SDS011;6139;51.274;7.128;2023-09-12T01:19:35;5.93;;;4.00;;
12151;SDS011;6139;51.274;7.128;2023-09-12T01:20:37;5.05;;;3.88;;
12151;SDS011;6139;51.274;7.128;2023-09-12T01:21:48;4.75;;;4.32;;
12151;SDS011;6139;51.274;7.128;2023-09-12T01:23:15;5.75;;;4.15;;
12151;SDS011;6139;51.274;7.128;2023-09-12T01:24:42;5.20;;;3.65;;
12151;SDS011;6139;51.274;7.128;2023-09-12T01:27:30;4.63;;;4.22;;
12151;SDS011;6139;51.274;7.128;2023-09-12T01:28:35;4.43;;;4.05;;
12151;SDS011;6139;51.274;7.128;2023-09-12T01:29:43;5.20;;;3.90;;
12151;SDS011;6139;51.274;7.128;2023-09-12T01:30:46;4.38;;;3.97;;
12151;SDS011;6139;51.274;7.128;2023-09-12T01:31:50;5.15;;;4.43;;
12151;SDS011;6139;51.274;7.128;2023-09-12T01:32:52;4.78;;;4.20;;
12151;SDS011;6139;51.274;7.128;2023-09-12T01:33:55;4.00;;;3.70;;
12151;SDS011;6139;51.274;7.128;2023-09-12T01:34:57;4.63;;;4.22;;
12151;SDS011;6139;51.274;7.128;2023-09-12T01:35:59;4.60;;;4.00;;
12151;SDS011;6139;51.274;7.128;2023-09-12T01:37:00;6.60;;;4.60;;
12151;SDS011;6139;51.274;7.128;2023-09-12T01:38:02;4.97;;;4.57;;
12151;SDS011;6139;51.274;7.128;2023-09-12T01:39:03;5.38;;;4.65;;
12151;SDS011;6139;51.274;7.128;2023-09-12T01:40:05;5.05;;;4.55;;
12151;SDS011;6139;51.274;7.128;2023-09-12T01:41:08;4.68;;;4.28;;
12151;SDS011;6139;51.274;7.128;2023-09-12T01:42:10;5.70;;;4.40;;
12151;SDS011;6139;51.274;7.128;2023-09-12T01:43:19;5.47;;;4.30;;
12151;SDS011;6139;51.274;7.128;2023-09-12T01:44:22;4.90;;;4.50;;
12151;SDS011;6139;51.274;7.128;2023-09-12T01:45:26;4.60;;;4.20;;
12151;SDS011;6139;51.274;7.128;2023-09-12T01:46:27;5.90;;;4.97;;
12151;SDS011;6139;51.274;7.128;2023-09-12T01:47:31;4.80;;;4.25;;
12151;SDS011;6139;51.274;7.128;2023-09-12T01:48:35;5.00;;;4.50;;
12151;SDS011;6139;51.274;7.128;2023-09-12T01:49:37;5.20;;;4.70;;
12151;SDS011;6139;51.274;7.128;2023-09-12T01:50:42;5.85;;;4.93;;
12151;SDS011;6139;51.274;7.128;2023-09-12T01:51:43;4.60;;;4.20;;
12151;SDS011;6139;51.274;7.128;2023-09-12T01:52:45;6.00;;;4.90;;
12151;SDS011;6139;51.274;7.128;2023-09-12T01:53:47;5.43;;;4.72;;
12151;SDS011;6139;51.274;7.128;2023-09-12T01:54:50;5.75;;;4.55;;
12151;SDS011;6139;51.274;7.128;2023-09-12T01:55:53;6.47;;;5.20;;
12151;SDS011;6139;51.274;7.128;2023-09-12T01:56:57;5.80;;;5.25;;
12151;SDS011;6139;51.274;7.128;2023-09-12T01:57:59;6.00;;;5.40;;
12151;SDS011;6139;51.274;7.128;2023-09-12T01:59:03;7.40;;;6.07;;
12151;SDS011;6139;51.274;7.128;2023-09-12T02:00:05;6.43;;;5.20;;
12151;SDS011;6139;51.274;7.128;2023-09-12T02:01:09;6.15;;;5.65;;
12151;SDS011;6139;51.274;7.128;2023-09-12T02:02:11;7.88;;;6.25;;
12151;SDS011;6139;51.274;7.128;2023-09-12T02:03:13;7.28;;;6.45;;
12151;SDS011;6139;51.274;7.128;2023-09-12T02:04:14;7.63;;;6.60;;
12151;SDS011;6139;51.274;7.128;2023-09-12T02:05:17;8.27;;;7.47;;
12151;SDS011;6139;51.274;7.128;2023-09-12T02:06:20;8.25;;;7.25;;
12151;SDS011;6139;51.274;7.128;2023-09-12T02:07:22;9.05;;;7.63;;
12151;SDS011;6139;51.274;7.128;2023-09-12T02:08:24;8.32;;;7.45;;
12151;SDS011;6139;51.274;7.128;2023-09-12T02:09:26;9.38;;;8.27;;
12151;SDS011;6139;51.274;7.128;2023-09-12T02:10:27;9.98;;;7.65;;
12151;SDS011;6139;51.274;7.128;2023-09-12T02:11:29;10.15;;;9.05;;
12151;SDS011;6139;51.274;7.128;2023-09-12T02:12:30;9.85;;;7.80;;
12151;SDS011;6139;51.274;7.128;2023-09-12T02:13:32;11.85;;;9.70;;
12151;SDS011;6139;51.274;7.128;2023-09-12T02:14:35;10.30;;;8.73;;
12151;SDS011;6139;51.274;7.128;2023-09-12T02:15:37;10.60;;;9.40;;
12151;SDS011;6139;51.274;7.128;2023-09-12T02:16:38;11.35;;;9.40;;
12151;SDS011;6139;51.274;7.128;2023-09-12T02:17:40;10.18;;;9.10;;
12151;SDS011;6139;51.274;7.128;2023-09-12T02:18:41;10.15;;;9.10;;
12151;SDS011;6139;51.274;7.128;2023-09-12T02:19:42;11.38;;;9.27;;
12151;SDS011;6139;51.274;7.128;2023-09-12T02:20:43;11.50;;;10.13;;
12151;SDS011;6139;51.274;7.128;2023-09-12T02:21:46;12.75;;;9.65;;
12151;SDS011;6139;51.274;7.128;2023-09-12T02:22:48;12.10;;;10.48;;
12151;SDS011;6139;51.274;7.128;2023-09-12T02:23:49;10.90;;;9.45;;
12151;SDS011;6139;51.274;7.128;2023-09-12T02:24:53;10.63;;;9.32;;
12151;SDS011;6139;51.274;7.128;2023-09-12T02:25:55;11.18;;;10.00;;
12151;SDS011;6139;51.274;7.128;2023-09-12T02:26:57;11.27;;;9.98;;
12151;SDS011;6139;51.274;7.128;2023-09-12T02:27:58;11.48;;;10.27;;
12151;SDS011;6139;51.274;7.128;2023-09-12T02:29:00;11.02;;;9.82;;
12151;SDS011;6139;51.274;7.128;2023-09-12T02:30:02;11.00;;;9.90;;
12151;SDS011;6139;51.274;7.128;2023-09-12T02:31:09;11.60;;;9.63;;
12151;SDS011;6139;51.274;7.128;2023-09-12T02:32:11;10.07;;;8.95;;
12151;SDS011;6139;51.274;7.128;2023-09-12T02:33:13;11.88;;;9.45;;
12151;SDS011;6139;51.274;7.128;2023-09-12T02:34:14;11.95;;;9.57;;
12151;SDS011;6139;51.274;7.128;2023-09-12T02:35:16;12.10;;;10.25;;
12151;SDS011;6139;51.274;7.128;2023-09-12T02:36:17;10.98;;;9.80;;
12151;SDS011;6139;51.274;7.128;2023-09-12T02:37:18;12.15;;;10.60;;
12151;SDS011;6139;51.274;7.128;2023-09-12T02:38:20;14.20;;;10.70;;
12151;SDS011;6139;51.274;7.128;2023-09-12T02:39:21;11.10;;;9.50;;
12151;SDS011;6139;51.274;7.128;2023-09-12T02:40:23;11.48;;;10.10;;
12151;SDS011;6139;51.274;7.128;2023-09-12T02:41:24;11.82;;;10.63;;
12151;SDS011;6139;51.274;7.128;2023-09-12T02:42:27;12.43;;;10.30;;
12151;SDS011;6139;51.274;7.128;2023-09-12T02:43:28;11.95;;;9.77;;
12151;SDS011;6139;51.274;7.128;2023-09-12T02:44:29;11.15;;;9.80;;
12151;SDS011;6139;51.274;7.128;2023-09-12T02:45:32;12.23;;;10.02;;
12151;SDS011;6139;51.274;7.128;2023-09-12T02:46:34;11.10;;;9.73;;
12151;SDS011;6139;51.274;7.128;2023-09-12T02:47:36;11.35;;;10.15;;
12151;SDS011;6139;51.274;7.128;2023-09-12T02:48:37;12.13;;;9.15;;
12151;SDS011;6139;51.274;7.128;2023-09-12T02:49:39;12.23;;;9.68;;
12151;SDS011;6139;51.274;7.128;2023-09-12T02:50:40;10.60;;;9.50;;
12151;SDS011;6139;51.274;7.128;2023-09-12T02:51:42;10.90;;;9.80;;
12151;SDS011;6139;51.274;7.128;2023-09-12T02:52:43;11.65;;;10.45;;
12151;SDS011;6139;51.274;7.128;2023-09-12T02:53:45;10.52;;;9.25;;
12151;SDS011;6139;51.274;7.128;2023-09-12T02:54:46;11.05;;;9.80;;
12151;SDS011;6139;51.274;7.128;2023-09-12T02:55:48;10.98;;;9.85;;
12151;SDS011;6139;51.274;7.128;2023-09-12T02:56:51;11.15;;;9.98;;
12151;SDS011;6139;51.274;7.128;2023-09-12T02:57:53;11.65;;;9.70;;
12151;SDS011;6139;51.274;7.128;2023-09-12T02:58:54;10.98;;;9.77;;
12151;SDS011;6139;51.274;7.128;2023-09-12T02:59:56;12.63;;;10.65;;
12151;SDS011;6139;51.274;7.128;2023-09-12T03:00:59;10.68;;;9.57;;
12151;SDS011;6139;51.274;7.128;2023-09-12T03:02:01;10.40;;;9.40;;
12151;SDS011;6139;51.274;7.128;2023-09-12T03:03:03;10.93;;;9.70;;
12151;SDS011;6139;51.274;7.128;2023-09-12T03:04:05;10.27;;;9.13;;
12151;SDS011;6139;51.274;7.128;2023-09-12T03:05:06;11.73;;;9.80;;
12151;SDS011;6139;51.274;7.128;2023-09-12T03:06:09;12.13;;;9.63;;
12151;SDS011;6139;51.274;7.128;2023-09-12T03:07:10;10.82;;;9.70;;
12151;SDS011;6139;51.274;7.128;2023-09-12T03:08:12;11.23;;;9.80;;
12151;SDS011;6139;51.274;7.128;2023-09-12T03:09:13;11.27;;;10.05;;
12151;SDS011;6139;51.274;7.128;2023-09-12T03:10:16;11.25;;;10.07;;
12151;SDS011;6139;51.274;7.128;2023-09-12T03:11:18;12.35;;;10.32;;
12151;SDS011;6139;51.274;7.128;2023-09-12T03:12:19;11.25;;;10.05;;
12151;SDS011;6139;51.274;7.128;2023-09-12T03:13:22;10.57;;;9.52;;
12151;SDS011;6139;51.274;7.128;2023-09-12T03:14:24;11.90;;;10.65;;
12151;SDS011;6139;51.274;7.128;2023-09-12T03:15:28;11.73;;;10.55;;
12151;SDS011;6139;51.274;7.128;2023-09-12T03:16:31;11.23;;;10.02;;
12151;SDS011;6139;51.274;7.128;2023-09-12T03:17:34;12.52;;;11.07;;
12151;SDS011;6139;51.274;7.128;2023-09-12T03:18:36;11.30;;;10.05;;
12151;SDS011;6139;51.274;7.128;2023-09-12T03:19:38;14.90;;;12.02;;
12151;SDS011;6139;51.274;7.128;2023-09-12T03:20:39;14.90;;;11.70;;
12151;SDS011;6139;51.274;7.128;2023-09-12T03:21:40;14.63;;;12.40;;
12151;SDS011;6139;51.274;7.128;2023-09-12T03:22:42;16.10;;;12.52;;
12151;SDS011;6139;51.274;7.128;2023-09-12T03:23:42;16.48;;;13.25;;
12151;SDS011;6139;51.274;7.128;2023-09-12T03:24:44;18.00;;;14.70;;
12151;SDS011;6139;51.274;7.128;2023-09-12T03:25:46;16.45;;;14.07;;
12151;SDS011;6139;51.274;7.128;2023-09-12T03:26:48;17.40;;;14.38;;
12151;SDS011;6139;51.274;7.128;2023-09-12T03:27:50;15.82;;;14.07;;
12151;SDS011;6139;51.274;7.128;2023-09-12T03:28:52;17.05;;;12.82;;
12151;SDS011;6139;51.274;7.128;2023-09-12T03:29:53;14.98;;;13.20;;
12151;SDS011;6139;51.274;7.128;2023-09-12T03:31:02;14.30;;;12.90;;
12151;SDS011;6139;51.274;7.128;2023-09-12T03:32:06;14.43;;;11.90;;
12151;SDS011;6139;51.274;7.128;2023-09-12T03:33:08;17.10;;;12.68;;
12151;SDS011;6139;51.274;7.128;2023-09-12T03:34:09;15.18;;;11.43;;
12151;SDS011;6139;51.274;7.128;2023-09-12T03:35:11;14.02;;;11.88;;
12151;SDS011;6139;51.274;7.128;2023-09-12T03:36:13;15.18;;;11.00;;
12151;SDS011;6139;51.274;7.128;2023-09-12T03:37:16;12.65;;;10.80;;
12151;SDS011;6139;51.274;7.128;2023-09-12T03:38:17;11.68;;;9.80;;
12151;SDS011;6139;51.274;7.128;2023-09-12T03:39:19;12.45;;;10.00;;
12151;SDS011;6139;51.274;7.128;2023-09-12T03:40:20;12.45;;;10.60;;
12151;SDS011;6139;51.274;7.128;2023-09-12T03:41:22;13.48;;;10.00;;
12151;SDS011;6139;51.274;7.128;2023-09-12T03:42:25;11.55;;;9.82;;
12151;SDS011;6139;51.274;7.128;2023-09-12T03:43:27;12.30;;;9.82;;
12151;SDS011;6139;51.274;7.128;2023-09-12T03:44:29;11.15;;;9.40;;
12151;SDS011;6139;51.274;7.128;2023-09-12T03:45:31;10.25;;;9.13;;
12151;SDS011;6139;51.274;7.128;2023-09-12T03:46:32;11.18;;;8.75;;
12151;SDS011;6139;51.274;7.128;2023-09-12T03:47:35;10.75;;;9.07;;
12151;SDS011;6139;51.274;7.128;2023-09-12T03:48:36;10.45;;;8.80;;
12151;SDS011;6139;51.274;7.128;2023-09-12T03:49:38;10.35;;;8.77;;
12151;SDS011;6139;51.274;7.128;2023-09-12T03:50:39;10.32;;;8.32;;
12151;SDS011;6139;51.274;7.128;2023-09-12T03:51:41;9.07;;;7.68;;
12151;SDS011;6139;51.274;7.128;2023-09-12T03:52:42;9.63;;;8.27;;
12151;SDS011;6139;51.274;7.128;2023-09-12T03:53:44;8.50;;;7.70;;
12151;SDS011;6139;51.274;7.128;2023-09-12T03:54:48;11.18;;;8.27;;
12151;SDS011;6139;51.274;7.128;2023-09-12T03:55:50;10.07;;;7.60;;
12151;SDS011;6139;51.274;7.128;2023-09-12T03:56:50;9.32;;;8.30;;
12151;SDS011;6139;51.274;7.128;2023-09-12T03:57:52;8.82;;;7.93;;
12151;SDS011;6139;51.274;7.128;2023-09-12T03:58:53;9.90;;;8.32;;
12151;SDS011;6139;51.274;7.128;2023-09-12T03:59:58;8.75;;;7.85;;
12151;SDS011;6139;51.274;7.128;2023-09-12T04:00:59;9.70;;;8.70;;
12151;SDS011;6139;51.274;7.128;2023-09-12T04:02:01;10.52;;;8.23;;
12151;SDS011;6139;51.274;7.128;2023-09-12T04:03:04;11.82;;;8.73;;
12151;SDS011;6139;51.274;7.128;2023-09-12T04:04:06;9.73;;;7.70;;
12151;SDS011;6139;51.274;7.128;2023-09-12T04:05:07;8.52;;;7.63;;
12151;SDS011;6139;51.274;7.128;2023-09-12T04:06:10;9.07;;;7.65;;
12151;SDS011;6139;51.274;7.128;2023-09-12T04:07:12;10.57;;;7.78;;
12151;SDS011;6139;51.274;7.128;2023-09-12T04:08:14;8.63;;;7.60;;
12151;SDS011;6139;51.274;7.128;2023-09-12T04:09:15;8.45;;;7.38;;
12151;SDS011;6139;51.274;7.128;2023-09-12T04:10:17;9.93;;;7.95;;
12151;SDS011;6139;51.274;7.128;2023-09-12T04:11:19;10.43;;;8.07;;
12151;SDS011;6139;51.274;7.128;2023-09-12T04:12:21;7.93;;;6.88;;
12151;SDS011;6139;51.274;7.128;2023-09-12T04:13:22;10.70;;;6.75;;
12151;SDS011;6139;51.274;7.128;2023-09-12T04:14:24;8.10;;;6.95;;
12151;SDS011;6139;51.274;7.128;2023-09-12T04:15:25;9.40;;;7.28;;
12151;SDS011;6139;51.274;7.128;2023-09-12T04:16:27;8.88;;;7.90;;
12151;SDS011;6139;51.274;7.128;2023-09-12T04:17:28;9.48;;;7.53;;
12151;SDS011;6139;51.274;7.128;2023-09-12T04:18:32;10.43;;;7.78;;
12151;SDS011;6139;51.274;7.128;2023-09-12T04:19:33;8.85;;;7.55;;
12151;SDS011;6139;51.274;7.128;2023-09-12T04:20:35;8.50;;;7.35;;
12151;SDS011;6139;51.274;7.128;2023-09-12T04:21:35;8.43;;;7.47;;
12151;SDS011;6139;51.274;7.128;2023-09-12T04:22:38;11.02;;;7.72;;
12151;SDS011;6139;51.274;7.128;2023-09-12T04:23:38;8.40;;;7.35;;
12151;SDS011;6139;51.274;7.128;2023-09-12T04:24:41;9.63;;;7.05;;
12151;SDS011;6139;51.274;7.128;2023-09-12T04:25:42;9.38;;;7.30;;
12151;SDS011;6139;51.274;7.128;2023-09-12T04:26:44;8.13;;;7.32;;
12151;SDS011;6139;51.274;7.128;2023-09-12T04:27:45;8.75;;;7.85;;
12151;SDS011;6139;51.274;7.128;2023-09-12T04:28:47;8.27;;;7.47;;
12151;SDS011;6139;51.274;7.128;2023-09-12T04:29:48;9.18;;;7.90;;
12151;SDS011;6139;51.274;7.128;2023-09-12T04:30:50;9.82;;;7.57;;
12151;SDS011;6139;51.274;7.128;2023-09-12T04:31:51;7.90;;;6.80;;
12151;SDS011;6139;51.274;7.128;2023-09-12T04:32:59;9.68;;;7.80;;
12151;SDS011;6139;51.274;7.128;2023-09-12T04:34:02;9.57;;;7.97;;
12151;SDS011;6139;51.274;7.128;2023-09-12T04:35:04;7.90;;;7.10;;
12151;SDS011;6139;51.274;7.128;2023-09-12T04:36:06;10.18;;;7.70;;
12151;SDS011;6139;51.274;7.128;2023-09-12T04:37:08;8.63;;;7.72;;
12151;SDS011;6139;51.274;7.128;2023-09-12T04:38:09;10.15;;;7.97;;
12151;SDS011;6139;51.274;7.128;2023-09-12T04:39:11;8.85;;;7.95;;
12151;SDS011;6139;51.274;7.128;2023-09-12T04:40:12;10.48;;;8.20;;
12151;SDS011;6139;51.274;7.128;2023-09-12T04:41:15;8.43;;;7.55;;
12151;SDS011;6139;51.274;7.128;2023-09-12T04:42:17;8.93;;;8.02;;
12151;SDS011;6139;51.274;7.128;2023-09-12T04:43:19;11.45;;;8.45;;
12151;SDS011;6139;51.274;7.128;2023-09-12T04:44:20;9.10;;;7.85;;
12151;SDS011;6139;51.274;7.128;2023-09-12T04:45:22;8.85;;;7.95;;
12151;SDS011;6139;51.274;7.128;2023-09-12T04:46:23;10.10;;;7.93;;
12151;SDS011;6139;51.274;7.128;2023-09-12T04:47:25;8.10;;;7.30;;
12151;SDS011;6139;51.274;7.128;2023-09-12T04:48:27;9.38;;;7.78;;
12151;SDS011;6139;51.274;7.128;2023-09-12T04:49:31;9.20;;;8.30;;
12151;SDS011;6139;51.274;7.128;2023-09-12T04:50:32;9.77;;;8.63;;
12151;SDS011;6139;51.274;7.128;2023-09-12T04:51:33;8.95;;;7.65;;
12151;SDS011;6139;51.274;7.128;2023-09-12T04:52:35;8.32;;;7.53;;
12151;SDS011;6139;51.274;7.128;2023-09-12T04:53:36;9.32;;;7.50;;
12151;SDS011;6139;51.274;7.128;2023-09-12T04:54:39;8.75;;;7.85;;
12151;SDS011;6139;51.274;7.128;2023-09-12T04:55:40;9.40;;;7.95;;
12151;SDS011;6139;51.274;7.128;2023-09-12T04:56:42;10.18;;;7.97;;
12151;SDS011;6139;51.274;7.128;2023-09-12T04:57:43;8.27;;;7.22;;
12151;SDS011;6139;51.274;7.128;2023-09-12T04:58:45;9.43;;;7.63;;
12151;SDS011;6139;51.274;7.128;2023-09-12T04:59:46;7.90;;;7.10;;
12151;SDS011;6139;51.274;7.128;2023-09-12T05:00:48;9.00;;;7.40;;
12151;SDS011;6139;51.274;7.128;2023-09-12T05:01:49;9.32;;;7.55;;
12151;SDS011;6139;51.274;7.128;2023-09-12T05:02:51;9.40;;;7.35;;
12151;SDS011;6139;51.274;7.128;2023-09-12T05:03:52;9.07;;;7.00;;
12151;SDS011;6139;51.274;7.128;2023-09-12T05:04:56;9.80;;;7.40;;
12151;SDS011;6139;51.274;7.128;2023-09-12T05:05:58;8.27;;;6.68;;
12151;SDS011;6139;51.274;7.128;2023-09-12T05:07:00;9.95;;;7.47;;
12151;SDS011;6139;51.274;7.128;2023-09-12T05:08:01;8.30;;;7.10;;
12151;SDS011;6139;51.274;7.128;2023-09-12T05:09:04;6.75;;;6.15;;
12151;SDS011;6139;51.274;7.128;2023-09-12T05:10:06;7.53;;;6.50;;
12151;SDS011;6139;51.274;7.128;2023-09-12T05:11:08;9.88;;;6.35;;
12151;SDS011;6139;51.274;7.128;2023-09-12T05:12:09;7.78;;;6.40;;
12151;SDS011;6139;51.274;7.128;2023-09-12T05:13:11;8.60;;;6.40;;
12151;SDS011;6139;51.274;7.128;2023-09-12T05:14:12;7.57;;;6.15;;
12151;SDS011;6139;51.274;7.128;2023-09-12T05:15:14;8.18;;;6.32;;
12151;SDS011;6139;51.274;7.128;2023-09-12T05:16:16;9.63;;;6.53;;
12151;SDS011;6139;51.274;7.128;2023-09-12T05:17:18;9.05;;;6.75;;
12151;SDS011;6139;51.274;7.128;2023-09-12T05:18:19;7.47;;;6.78;;
12151;SDS011;6139;51.274;7.128;2023-09-12T05:19:21;9.07;;;6.65;;
12151;SDS011;6139;51.274;7.128;2023-09-12T05:20:23;12.05;;;7.30;;
12151;SDS011;6139;51.274;7.128;2023-09-12T05:21:25;9.15;;;7.72;;
12151;SDS011;6139;51.274;7.128;2023-09-12T05:22:26;8.48;;;6.50;;
12151;SDS011;6139;51.274;7.128;2023-09-12T05:23:29;11.10;;;7.15;;
12151;SDS011;6139;51.274;7.128;2023-09-12T05:24:30;8.45;;;6.95;;
12151;SDS011;6139;51.274;7.128;2023-09-12T05:25:32;7.53;;;6.72;;
12151;SDS011;6139;51.274;7.128;2023-09-12T05:26:33;8.45;;;7.20;;
12151;SDS011;6139;51.274;7.128;2023-09-12T05:27:35;8.27;;;7.38;;
12151;SDS011;6139;51.274;7.128;2023-09-12T05:28:36;9.40;;;7.40;;
12151;SDS011;6139;51.274;7.128;2023-09-12T05:29:38;11.13;;;7.47;;
12151;SDS011;6139;51.274;7.128;2023-09-12T05:30:39;7.20;;;6.50;;
12151;SDS011;6139;51.274;7.128;2023-09-12T05:31:41;7.95;;;6.97;;
12151;SDS011;6139;51.274;7.128;2023-09-12T05:32:42;9.30;;;7.35;;
12151;SDS011;6139;51.274;7.128;2023-09-12T05:33:44;8.63;;;6.70;;
12151;SDS011;6139;51.274;7.128;2023-09-12T05:34:45;10.50;;;7.47;;
12151;SDS011;6139;51.274;7.128;2023-09-12T05:35:51;9.52;;;7.30;;
12151;SDS011;6139;51.274;7.128;2023-09-12T05:36:53;9.85;;;7.63;;
12151;SDS011;6139;51.274;7.128;2023-09-12T05:37:54;9.60;;;7.53;;
12151;SDS011;6139;51.274;7.128;2023-09-12T05:38:56;8.02;;;7.22;;
12151;SDS011;6139;51.274;7.128;2023-09-12T05:39:57;9.15;;;7.38;;
12151;SDS011;6139;51.274;7.128;2023-09-12T05:40:58;8.85;;;7.43;;
12151;SDS011;6139;51.274;7.128;2023-09-12T05:42:00;12.15;;;8.27;;
12151;SDS011;6139;51.274;7.128;2023-09-12T05:43:01;9.30;;;8.02;;
12151;SDS011;6139;51.274;7.128;2023-09-12T05:44:02;10.80;;;7.95;;
12151;SDS011;6139;51.274;7.128;2023-09-12T05:45:05;10.00;;;7.65;;
12151;SDS011;6139;51.274;7.128;2023-09-12T05:46:07;9.90;;;7.93;;
12151;SDS011;6139;51.274;7.128;2023-09-12T05:47:09;10.13;;;8.25;;
12151;SDS011;6139;51.274;7.128;2023-09-12T05:48:10;8.90;;;7.90;;
12151;SDS011;6139;51.274;7.128;2023-09-12T05:49:12;10.63;;;8.48;;
12151;SDS011;6139;51.274;7.128;2023-09-12T05:50:13;13.13;;;8.75;;
12151;SDS011;6139;51.274;7.128;2023-09-12T05:51:17;9.05;;;8.00;;
12151;SDS011;6139;51.274;7.128;2023-09-12T05:52:17;9.35;;;8.32;;
12151;SDS011;6139;51.274;7.128;2023-09-12T05:53:19;10.63;;;8.55;;
12151;SDS011;6139;51.274;7.128;2023-09-12T05:54:20;9.77;;;8.63;;
12151;SDS011;6139;51.274;7.128;2023-09-12T05:55:22;9.40;;;8.30;;
12151;SDS011;6139;51.274;7.128;2023-09-12T05:56:25;10.50;;;8.60;;
12151;SDS011;6139;51.274;7.128;2023-09-12T05:57:28;10.13;;;8.90;;
12151;SDS011;6139;51.274;7.128;2023-09-12T05:58:29;9.15;;;8.30;;
12151;SDS011;6139;51.274;7.128;2023-09-12T05:59:31;9.77;;;8.77;;
12151;SDS011;6139;51.274;7.128;2023-09-12T06:00:33;9.55;;;8.55;;
12151;SDS011;6139;51.274;7.128;2023-09-12T06:01:35;12.73;;;8.52;;
12151;SDS011;6139;51.274;7.128;2023-09-12T06:02:36;9.23;;;8.32;;
12151;SDS011;6139;51.274;7.128;2023-09-12T06:03:38;9.38;;;8.38;;
12151;SDS011;6139;51.274;7.128;2023-09-12T06:04:39;10.32;;;8.73;;
12151;SDS011;6139;51.274;7.128;2023-09-12T06:05:41;9.90;;;8.90;;
12151;SDS011;6139;51.274;7.128;2023-09-12T06:06:43;10.00;;;8.75;;
12151;SDS011;6139;51.274;7.128;2023-09-12T06:07:45;11.15;;;9.35;;
12151;SDS011;6139;51.274;7.128;2023-09-12T06:08:47;10.35;;;9.13;;
12151;SDS011;6139;51.274;7.128;2023-09-12T06:09:49;10.77;;;8.73;;
12151;SDS011;6139;51.274;7.128;2023-09-12T06:10:50;10.15;;;8.90;;
12151;SDS011;6139;51.274;7.128;2023-09-12T06:11:53;9.68;;;8.65;;
12151;SDS011;6139;51.274;7.128;2023-09-12T06:12:54;9.27;;;8.38;;
12151;SDS011;6139;51.274;7.128;2023-09-12T06:13:56;9.27;;;7.90;;
12151;SDS011;6139;51.274;7.128;2023-09-12T06:14:57;9.35;;;8.35;;
12151;SDS011;6139;51.274;7.128;2023-09-12T06:15:59;11.77;;;8.48;;
12151;SDS011;6139;51.274;7.128;2023-09-12T06:17:00;9.60;;;7.55;;
12151;SDS011;6139;51.274;7.128;2023-09-12T06:18:03;9.43;;;8.52;;
12151;SDS011;6139;51.274;7.128;2023-09-12T06:19:04;9.35;;;7.82;;
12151;SDS011;6139;51.274;7.128;2023-09-12T06:20:07;9.48;;;8.50;;